Piedmont, Oklahoma
Current Conditions -  °F | °C
As of 10:53 PM on Monday 20 Oct 2014 (Local Time) from KPWA Reporting Station
Clear Clear  
Wind Chill: 70°   Ceiling: Unl
Heat Index: 70°   Visibility: 8mi
Dew Point: 62°   Wind: 7mph
Humidity: 76%   Direction: 150°SSE
Pressure: 30.05"   Gusts: NA
Location:  35.64°N, 97.75°W
Report Text: KPWA 210353Z AUTO 15006KT 8SM CLR 21/17 A3005 RMK AO2 SLP164 T02110167
Loading
Personal Weather Stations






























Interactive Weather Map
Tropical Storm Tracking
New forecast layout! Learn more

10-Day Weather Forecast

Advertisements
Track Severe Weather on mobile